createdAt,value
2022-11-04T00:00:34.868Z,77.9
2022-11-04T00:01:38.731Z,78
2022-11-04T00:02:42.213Z,78
2022-11-04T00:03:46.089Z,78.1
2022-11-04T00:04:49.220Z,78.2
2022-11-04T00:05:51.974Z,78.1
2022-11-04T00:06:55.445Z,78.3
2022-11-04T00:07:58.882Z,78.4
2022-11-04T00:09:01.947Z,78.4
2022-11-04T00:10:05.231Z,78.3
2022-11-04T00:11:08.059Z,78.4
2022-11-04T00:12:10.315Z,78.4
2022-11-04T00:13:13.119Z,78.5
2022-11-04T00:14:16.501Z,78.5
2022-11-04T00:15:19.325Z,78.8
2022-11-04T00:16:22.676Z,79
2022-11-04T00:17:25.313Z,78.9
2022-11-04T00:18:28.399Z,78.8
2022-11-04T00:19:32.215Z,78.9
2022-11-04T00:20:35.331Z,79
2022-11-04T00:21:38.836Z,78.9
2022-11-04T00:22:41.749Z,78.8
2022-11-04T00:23:44.835Z,78.8
2022-11-04T00:24:47.646Z,78.8
2022-11-04T00:25:50.090Z,78.8
2022-11-04T00:26:53.674Z,78.8
2022-11-04T00:27:56.397Z,78.8
2022-11-04T00:28:59.201Z,78.9
2022-11-04T00:30:01.582Z,78.9
2022-11-04T00:31:04.696Z,78.8
2022-11-04T00:32:07.854Z,78.8
2022-11-04T00:33:10.659Z,78.7
2022-11-04T00:34:13.806Z,78.7
2022-11-04T00:35:16.970Z,78.7
2022-11-04T00:36:20.002Z,78.8
2022-11-04T00:37:23.509Z,78.9
2022-11-04T00:38:27.522Z,78.8
2022-11-04T00:39:29.990Z,78.7
2022-11-04T00:40:33.069Z,78.7
2022-11-04T00:41:36.421Z,78.7
2022-11-04T00:42:40.260Z,78.8
2022-11-04T00:43:43.248Z,78.7
2022-11-04T00:44:45.973Z,78.6
2022-11-04T00:45:48.958Z,78.6
2022-11-04T00:46:51.478Z,78.6
2022-11-04T00:47:54.765Z,78.6
2022-11-04T00:48:57.217Z,78.6
2022-11-04T00:50:00.009Z,78.6
2022-11-04T00:51:03.797Z,78.5
2022-11-04T00:52:07.016Z,78.5
2022-11-04T00:53:11.569Z,78.4
2022-11-04T00:54:15.058Z,78.4
2022-11-04T00:55:17.856Z,78.4
2022-11-04T00:56:20.300Z,78.4
2022-11-04T00:57:22.910Z,78.4
2022-11-04T00:58:27.015Z,78.3
2022-11-04T00:59:29.463Z,78.3
2022-11-04T01:00:31.992Z,78.4
2022-11-04T01:01:35.484Z,78.4
2022-11-04T01:02:39.283Z,78.4
2022-11-04T01:03:42.330Z,78.4
2022-11-04T01:04:45.518Z,78.4
2022-11-04T01:05:49.235Z,78.5
2022-11-04T01:06:51.398Z,78.5
2022-11-04T01:07:54.042Z,78.5
2022-11-04T01:08:56.806Z,78.6
2022-11-04T01:10:00.221Z,78.5
2022-11-04T01:11:03.848Z,78.5
2022-11-04T01:12:06.937Z,78.5
2022-11-04T01:13:11.527Z,78.6
2022-11-04T01:14:15.661Z,78.6
2022-11-04T01:15:18.739Z,78.6
2022-11-04T01:16:22.034Z,78.6
2022-11-04T01:17:25.572Z,78.5
2022-11-04T01:18:28.657Z,78.6
2022-11-04T01:19:30.963Z,78.6
2022-11-04T01:20:33.496Z,78.6
2022-11-04T01:21:36.102Z,78.6
2022-11-04T01:22:39.533Z,78.5
2022-11-04T01:23:42.640Z,78.6
2022-11-04T01:24:45.756Z,78.6
2022-11-04T01:25:48.856Z,78.6
2022-11-04T01:26:51.739Z,78.6
2022-11-04T01:27:55.117Z,78.5
2022-11-04T01:28:58.204Z,78.6
2022-11-04T01:30:01.128Z,78.6
2022-11-04T01:31:04.542Z,78.6
2022-11-04T01:32:07.419Z,78.6
2022-11-04T01:33:10.496Z,78.6
2022-11-04T01:34:13.028Z,78.6
2022-11-04T01:35:16.467Z,78.6
2022-11-04T01:36:19.252Z,78.6
2022-11-04T01:37:21.584Z,78.5
2022-11-04T01:38:24.379Z,78.6
2022-11-04T01:39:27.148Z,78.7
2022-11-04T01:40:30.534Z,78.8
2022-11-04T01:41:33.991Z,78.7
2022-11-04T01:42:37.351Z,78.9
2022-11-04T01:43:40.286Z,78.9
2022-11-04T01:44:43.063Z,78.9
2022-11-04T01:45:46.555Z,79
2022-11-04T01:46:49.903Z,79
2022-11-04T01:47:52.972Z,79
2022-11-04T01:48:56.127Z,79.1
2022-11-04T01:49:58.294Z,79.3
2022-11-04T01:51:00.987Z,79.4
2022-11-04T01:52:04.058Z,79.6
2022-11-04T01:53:08.932Z,79.7
2022-11-04T01:54:13.143Z,79.7
2022-11-04T01:55:16.374Z,79.8
2022-11-04T01:56:19.828Z,80
2022-11-04T01:57:23.564Z,80.2
2022-11-04T01:58:26.113Z,80.3
2022-11-04T01:59:28.907Z,80.4
2022-11-04T02:00:32.002Z,80.5
2022-11-04T02:01:36.833Z,80.5
2022-11-04T02:02:40.437Z,80.7
2022-11-04T02:03:43.771Z,80.7
2022-11-04T02:04:47.133Z,80.8
2022-11-04T02:05:50.404Z,80.8
2022-11-04T02:06:52.645Z,80.7
2022-11-04T02:07:55.084Z,80.7
2022-11-04T02:08:58.402Z,80.7
2022-11-04T02:10:01.103Z,80.8
2022-11-04T02:11:04.045Z,80.9
2022-11-04T02:12:06.817Z,80.9
2022-11-04T02:13:12.193Z,80.9
2022-11-04T02:14:15.434Z,81
2022-11-04T02:15:17.867Z,81.1
2022-11-04T02:16:20.763Z,81.2
2022-11-04T02:17:23.961Z,81.1
2022-11-04T02:18:26.764Z,81.3
2022-11-04T02:19:30.212Z,81.4
2022-11-04T02:20:33.599Z,81.4
2022-11-04T02:21:36.743Z,81.4
2022-11-04T02:22:39.802Z,81.3
2022-11-04T02:23:43.224Z,81.3
2022-11-04T02:24:46.004Z,81.4
2022-11-04T02:25:49.179Z,81.7
2022-11-04T02:26:52.553Z,81.7
2022-11-04T02:27:56.105Z,81.7
2022-11-04T02:28:59.317Z,81.7
2022-11-04T02:30:02.036Z,81.6
2022-11-04T02:31:04.290Z,81.5
2022-11-04T02:32:07.080Z,81.7
2022-11-04T02:33:12.043Z,81.6
2022-11-04T02:34:15.440Z,81.7
2022-11-04T02:35:18.776Z,81.7
2022-11-04T02:36:21.561Z,81.6
2022-11-04T02:37:24.354Z,81.7
2022-11-04T02:38:27.160Z,81.8
2022-11-04T02:39:30.157Z,81.7
2022-11-04T02:40:33.308Z,81.8
2022-11-04T02:41:36.114Z,81.8
2022-11-04T02:42:38.947Z,81.8
2022-11-04T02:43:42.144Z,81.8
2022-11-04T02:44:45.623Z,81.8
2022-11-04T02:45:48.344Z,81.9
2022-11-04T02:46:51.254Z,81.9
2022-11-04T02:47:54.129Z,81.8
2022-11-04T02:48:57.324Z,81.8
2022-11-04T02:50:00.383Z,82
2022-11-04T02:51:03.758Z,82
2022-11-04T02:52:06.862Z,82
2022-11-04T02:53:12.285Z,82
2022-11-04T02:54:15.139Z,82.2
2022-11-04T02:55:18.308Z,82.1
2022-11-04T02:56:21.553Z,82.3
2022-11-04T02:57:24.061Z,82.4
2022-11-04T02:58:26.901Z,82.5
2022-11-04T02:59:30.343Z,82.6
2022-11-04T03:00:33.466Z,82.6
2022-11-04T03:01:37.247Z,82.7
2022-11-04T03:02:41.201Z,82.6
2022-11-04T03:03:44.574Z,82.8
2022-11-04T03:04:47.758Z,82.8
2022-11-04T03:05:51.406Z,82.7
2022-11-04T03:06:54.472Z,82.8
2022-11-04T03:07:57.832Z,82.8
2022-11-04T03:09:01.265Z,83
2022-11-04T03:10:04.339Z,83
2022-11-04T03:11:07.960Z,83
2022-11-04T03:12:11.105Z,83
2022-11-04T03:13:13.833Z,83
2022-11-04T03:14:17.377Z,83.1
2022-11-04T03:15:20.572Z,83.2
2022-11-04T03:16:23.404Z,83.2
2022-11-04T03:17:25.732Z,83.3
2022-11-04T03:18:28.536Z,83.4
2022-11-04T03:19:31.795Z,83.6
2022-11-04T03:20:34.987Z,83.5
2022-11-04T03:21:38.603Z,83.5
2022-11-04T03:22:41.689Z,83.6
2022-11-04T03:23:45.031Z,83.6
2022-11-04T03:24:48.779Z,83.6
2022-11-04T03:25:51.883Z,83.6
2022-11-04T03:26:55.069Z,83.6
2022-11-04T03:27:58.491Z,83.7
2022-11-04T03:29:01.227Z,83.8
2022-11-04T03:30:05.189Z,84
2022-11-04T03:31:08.304Z,84
2022-11-04T03:32:11.516Z,84
2022-11-04T03:33:13.968Z,84
2022-11-04T03:34:17.041Z,84
2022-11-04T03:35:19.831Z,84
2022-11-04T03:36:23.217Z,84
2022-11-04T03:37:26.280Z,83.9
2022-11-04T03:38:28.829Z,84
2022-11-04T03:39:31.611Z,84
2022-11-04T03:40:34.575Z,84
2022-11-04T03:41:37.445Z,84
2022-11-04T03:42:40.434Z,83.9
2022-11-04T03:43:43.535Z,83.8
2022-11-04T03:44:46.017Z,83.9
2022-11-04T03:45:48.566Z,83.8
2022-11-04T03:46:52.062Z,83.8
2022-11-04T03:47:55.244Z,84
2022-11-04T03:48:58.241Z,84
2022-11-04T03:50:01.323Z,84.1
2022-11-04T03:51:03.929Z,84.1
2022-11-04T03:52:07.704Z,84.2
2022-11-04T03:53:13.428Z,84.3
2022-11-04T03:54:18.072Z,84.4
2022-11-04T03:55:22.151Z,84.5
2022-11-04T03:56:25.326Z,84.7
2022-11-04T03:57:28.125Z,84.9
2022-11-04T03:58:30.922Z,84.9
2022-11-04T03:59:33.357Z,85
2022-11-04T04:00:36.643Z,85
2022-11-04T04:01:40.177Z,85.2
2022-11-04T04:02:44.092Z,85.3
2022-11-04T04:03:47.801Z,85.5
2022-11-04T04:04:50.061Z,85.7
2022-11-04T04:05:53.138Z,85.8
2022-11-04T04:06:55.458Z,85.9
2022-11-04T04:07:58.845Z,86
2022-11-04T04:09:02.557Z,86.1
2022-11-04T04:10:05.000Z,86.1
2022-11-04T04:11:08.075Z,86.3
2022-11-04T04:12:10.862Z,86.4
2022-11-04T04:13:14.990Z,86.4
2022-11-04T04:14:18.643Z,86.4
2022-11-04T04:15:21.517Z,86.5
2022-11-04T04:16:28.148Z,86.7
2022-11-04T04:17:31.536Z,86.9
2022-11-04T04:18:34.380Z,86.9
2022-11-04T04:19:37.475Z,86.9
2022-11-04T04:20:40.343Z,86.8
2022-11-04T04:21:42.779Z,86.9
2022-11-04T04:22:45.843Z,87
2022-11-04T04:23:48.750Z,87.3
2022-11-04T04:24:52.014Z,87.3
2022-11-04T04:25:55.259Z,87.5
2022-11-04T04:26:58.429Z,87.6
2022-11-04T04:28:02.078Z,87.7
2022-11-04T04:29:05.311Z,87.9
2022-11-04T04:30:08.504Z,87.9
2022-11-04T04:31:11.225Z,88.1
2022-11-04T04:32:14.499Z,88.2
2022-11-04T04:33:17.620Z,88.2
2022-11-04T04:34:20.463Z,88.1
2022-11-04T04:35:23.290Z,88.2
2022-11-04T04:36:25.538Z,88.3
2022-11-04T04:37:28.344Z,88.3
2022-11-04T04:38:30.563Z,88.2
2022-11-04T04:39:33.391Z,88.3
2022-11-04T04:40:36.810Z,88.3
2022-11-04T04:41:39.620Z,88.2
2022-11-04T04:42:42.225Z,88.2
2022-11-04T04:43:45.012Z,88.4
2022-11-04T04:44:48.165Z,88.4
2022-11-04T04:45:50.958Z,88.7
2022-11-04T04:46:54.645Z,88.8
2022-11-04T04:47:57.746Z,88.9
2022-11-04T04:49:01.078Z,89
2022-11-04T04:50:03.905Z,89
2022-11-04T04:51:07.365Z,89
2022-11-04T04:52:10.458Z,89
2022-11-04T04:53:13.487Z,89.2
2022-11-04T04:54:17.127Z,89.2
2022-11-04T04:55:20.322Z,89.2
2022-11-04T04:56:23.466Z,89.2
2022-11-04T04:57:25.994Z,89.3
2022-11-04T04:58:28.895Z,89.4
2022-11-04T04:59:31.799Z,89.6
2022-11-04T05:00:35.215Z,89.6
2022-11-04T05:01:38.754Z,89.7
2022-11-04T05:02:42.535Z,89.6
2022-11-04T05:03:46.874Z,89.6
2022-11-04T05:04:49.626Z,89.7
2022-11-04T05:05:59.401Z,89.7
2022-11-04T05:07:02.515Z,89.7
2022-11-04T05:08:06.944Z,89.9
2022-11-04T05:09:10.663Z,89.9
2022-11-04T05:10:14.402Z,90
2022-11-04T05:11:22.917Z,90
2022-11-04T05:12:29.923Z,90.1
2022-11-04T05:13:32.425Z,90.1
2022-11-04T05:14:36.205Z,90.2
2022-11-04T05:15:39.912Z,90.1
2022-11-04T05:16:43.092Z,90.2
2022-11-04T05:17:46.261Z,90.4
2022-11-04T05:18:48.687Z,90.4
2022-11-04T05:19:51.496Z,90.3
2022-11-04T05:20:54.542Z,90.5
2022-11-04T05:21:57.770Z,90.6
2022-11-04T05:23:00.681Z,90.6
2022-11-04T05:24:04.351Z,90.7
2022-11-04T05:25:07.716Z,90.7
2022-11-04T05:26:09.876Z,90.8
2022-11-04T05:27:13.436Z,90.8
2022-11-04T05:28:16.428Z,90.8
2022-11-04T05:29:19.223Z,90.9
2022-11-04T05:30:22.324Z,91
2022-11-04T05:31:25.264Z,91
2022-11-04T05:32:28.917Z,90.9
2022-11-04T05:33:32.370Z,90.9
2022-11-04T05:34:35.081Z,90.9
2022-11-04T05:35:38.547Z,90.8
2022-11-04T05:36:41.459Z,90.8
2022-11-04T05:37:44.280Z,90.9
2022-11-04T05:38:47.265Z,91
2022-11-04T05:39:49.969Z,91
2022-11-04T05:40:53.083Z,91.1
2022-11-04T05:41:56.218Z,91.1
2022-11-04T05:42:59.607Z,91.1
2022-11-04T05:44:02.781Z,91.2
2022-11-04T05:45:05.569Z,91.3
2022-11-04T05:46:07.732Z,91.4
2022-11-04T05:47:10.170Z,91.4
2022-11-04T05:48:12.423Z,91.4
2022-11-04T05:49:15.582Z,91.4
2022-11-04T05:50:19.030Z,91.4
2022-11-04T05:51:22.213Z,91.5
2022-11-04T05:52:25.613Z,91.5
2022-11-04T05:54:31.616Z,91.5
2022-11-04T05:55:35.078Z,91.6
2022-11-04T05:56:37.499Z,91.6
2022-11-04T05:57:40.416Z,91.6
2022-11-04T05:58:44.075Z,91.7
2022-11-04T05:59:47.411Z,91.8
2022-11-04T06:00:50.502Z,91.7
2022-11-04T06:01:54.219Z,91.7
2022-11-04T06:02:58.268Z,91.7
2022-11-04T06:04:01.531Z,91.7
2022-11-04T06:05:04.713Z,91.6
2022-11-04T06:06:07.876Z,91.6
2022-11-04T06:07:10.886Z,91.7
2022-11-04T06:08:13.933Z,91.7
2022-11-04T06:09:16.945Z,91.7
2022-11-04T06:10:20.150Z,91.7
2022-11-04T06:11:23.210Z,91.6
2022-11-04T06:12:26.287Z,91.6
2022-11-04T06:13:29.346Z,91.6
2022-11-04T06:14:32.468Z,91.7
2022-11-04T06:15:35.335Z,91.7
2022-11-04T06:16:38.133Z,91.9
2022-11-04T06:17:40.837Z,91.9
2022-11-04T06:18:43.906Z,91.9
2022-11-04T06:19:47.059Z,91.8
2022-11-04T06:20:50.505Z,91.8
2022-11-04T06:21:53.313Z,91.8
2022-11-04T06:22:56.428Z,91.9
2022-11-04T06:23:58.795Z,91.9
2022-11-04T06:25:01.984Z,91.8
2022-11-04T06:26:05.078Z,91.9
2022-11-04T06:27:08.521Z,91.9
2022-11-04T06:28:12.539Z,92.1
2022-11-04T06:29:15.680Z,92.1
2022-11-04T06:30:19.088Z,92.1
2022-11-04T06:31:22.501Z,92.1
2022-11-04T06:32:26.233Z,92.1
2022-11-04T06:33:37.604Z,92
2022-11-04T06:34:41.005Z,92
2022-11-04T06:35:43.247Z,92.1
2022-11-04T06:36:46.712Z,92.1
2022-11-04T06:37:49.784Z,92.1
2022-11-04T06:38:53.230Z,92
2022-11-04T06:39:56.420Z,92.1
2022-11-04T06:40:59.897Z,92.2
2022-11-04T06:42:04.185Z,92.2
2022-11-04T06:43:08.565Z,92.2
2022-11-04T06:44:11.755Z,92.2
2022-11-04T06:45:14.074Z,92.2
2022-11-04T06:46:17.488Z,92.2
2022-11-04T06:47:26.218Z,92.1
2022-11-04T06:48:29.119Z,92.1
2022-11-04T06:49:32.458Z,92
2022-11-04T06:50:35.535Z,91.9
2022-11-04T06:51:39.333Z,91.9
2022-11-04T06:52:43.763Z,91.9
2022-11-04T06:53:46.201Z,92
2022-11-04T06:54:49.363Z,91.9
2022-11-04T06:55:53.133Z,91.9
2022-11-04T06:56:56.024Z,91.8
2022-11-04T06:57:59.760Z,91.8
2022-11-04T06:59:03.221Z,91.8
2022-11-04T07:00:05.724Z,91.8
2022-11-04T07:01:22.966Z,91.8
2022-11-04T07:02:28.152Z,91.8
2022-11-04T07:03:31.311Z,91.8
2022-11-04T07:04:34.454Z,91.8
2022-11-04T07:05:37.512Z,91.8
2022-11-04T07:06:45.679Z,91.7
2022-11-04T07:07:49.464Z,91.7
2022-11-04T07:08:52.981Z,91.7
2022-11-04T07:09:55.449Z,91.7
2022-11-04T07:10:58.846Z,91.7
2022-11-04T07:12:01.946Z,91.8
2022-11-04T07:13:05.740Z,91.8
2022-11-04T07:14:08.346Z,91.9
2022-11-04T07:15:11.500Z,92.1
2022-11-04T07:16:14.071Z,92.1
2022-11-04T07:17:16.664Z,92.1
2022-11-04T07:18:20.298Z,92.1
2022-11-04T07:19:22.823Z,92.1
2022-11-04T07:20:26.474Z,92
2022-11-04T07:21:30.203Z,92.1
2022-11-04T07:22:33.912Z,92.1
2022-11-04T07:23:36.352Z,92.1
2022-11-04T07:24:39.827Z,92
2022-11-04T07:25:43.465Z,92
2022-11-04T07:26:46.948Z,91.9
2022-11-04T07:27:50.210Z,91.9
2022-11-04T07:28:53.105Z,91.8
2022-11-04T07:29:56.565Z,91.8
2022-11-04T07:30:59.661Z,91.8
2022-11-04T07:32:03.683Z,91.8
2022-11-04T07:33:07.157Z,91.8
2022-11-04T07:34:10.252Z,91.9
2022-11-04T07:35:13.431Z,91.9
2022-11-04T07:36:16.310Z,91.8
2022-11-04T07:37:19.409Z,91.8
2022-11-04T07:38:22.563Z,91.8
2022-11-04T07:39:25.695Z,91.7
2022-11-04T07:40:28.402Z,91.7
2022-11-04T07:41:31.851Z,91.6
2022-11-04T07:42:34.970Z,91.6
2022-11-04T07:43:38.711Z,91.6
2022-11-04T07:44:42.178Z,91.6
2022-11-04T07:45:45.592Z,91.5
2022-11-04T07:46:49.036Z,91.4
2022-11-04T07:47:51.868Z,91.4
2022-11-04T07:48:54.678Z,91.4
2022-11-04T07:49:58.426Z,91.4
2022-11-04T07:51:02.007Z,91.4
2022-11-04T07:52:04.997Z,91.3
2022-11-04T07:53:09.390Z,91.3
2022-11-04T07:54:13.433Z,91.2
2022-11-04T07:55:15.967Z,91.3
2022-11-04T07:56:18.403Z,91.2
2022-11-04T07:57:21.853Z,91.2
2022-11-04T07:58:24.407Z,91.1
2022-11-04T07:59:27.714Z,91.1
2022-11-04T08:00:31.185Z,91.1
2022-11-04T08:01:34.909Z,91.1
2022-11-04T08:02:39.125Z,91
2022-11-04T08:03:41.926Z,91
2022-11-04T08:04:44.766Z,90.9
2022-11-04T08:05:48.512Z,91
2022-11-04T08:06:51.971Z,91
2022-11-04T08:07:55.405Z,91
2022-11-04T08:08:58.802Z,91
2022-11-04T08:10:02.776Z,91
2022-11-04T08:11:06.247Z,91.1
2022-11-04T08:12:08.679Z,90.9
2022-11-04T08:13:13.118Z,90.9
2022-11-04T08:14:15.749Z,90.9
2022-11-04T08:15:18.594Z,91
2022-11-04T08:16:22.120Z,91
2022-11-04T08:17:25.860Z,90.9
2022-11-04T08:18:29.333Z,90.9
2022-11-04T08:19:33.062Z,90.9
2022-11-04T08:20:36.469Z,90.9
2022-11-04T08:21:39.912Z,90.9
2022-11-04T08:22:43.559Z,90.7
2022-11-04T08:23:46.662Z,90.6
2022-11-04T08:24:50.291Z,90.5
2022-11-04T08:25:53.075Z,90.5
2022-11-04T08:26:56.332Z,90.6
2022-11-04T08:28:02.317Z,90.6
2022-11-04T08:29:05.434Z,90.6
2022-11-04T08:30:08.814Z,90.5
2022-11-04T08:31:11.897Z,90.5
2022-11-04T08:32:15.255Z,90.4
2022-11-04T08:33:17.653Z,90.4
2022-11-04T08:34:20.720Z,90.4
2022-11-04T08:35:23.509Z,90.4
2022-11-04T08:36:27.001Z,90.4
2022-11-04T08:37:30.739Z,90.3
2022-11-04T08:38:33.914Z,90.3
2022-11-04T08:39:37.055Z,90.3
2022-11-04T08:40:39.484Z,90.2
2022-11-04T08:41:42.837Z,90.1
2022-11-04T08:42:45.838Z,90.1
2022-11-04T08:43:48.569Z,90
2022-11-04T08:44:51.671Z,90
2022-11-04T08:45:55.134Z,90
2022-11-04T08:46:58.013Z,90
2022-11-04T08:48:07.200Z,90
2022-11-04T08:49:22.110Z,90
2022-11-04T08:50:25.469Z,90
2022-11-04T08:51:28.660Z,89.9
2022-11-04T08:52:31.214Z,89.8
2022-11-04T08:53:34.714Z,89.9
2022-11-04T08:54:38.488Z,89.9
2022-11-04T08:55:41.658Z,90.1
2022-11-04T08:56:45.441Z,90.1
2022-11-04T08:57:49.171Z,90.1
2022-11-04T08:58:52.518Z,89.9
2022-11-04T08:59:55.984Z,89.9
2022-11-04T09:00:59.329Z,89.8
2022-11-04T09:02:02.300Z,89.7
2022-11-04T09:03:05.872Z,89.7
2022-11-04T09:04:09.096Z,89.7
2022-11-04T09:05:12.124Z,89.5
2022-11-04T09:06:15.481Z,89.4
2022-11-04T09:07:18.722Z,89.4
2022-11-04T09:08:22.458Z,89.4
2022-11-04T09:09:25.850Z,89.4
2022-11-04T09:10:28.483Z,89.3
2022-11-04T09:11:30.787Z,89.3
2022-11-04T09:12:33.314Z,89.3
2022-11-04T09:13:41.325Z,89.1
2022-11-04T09:14:44.078Z,89.1
2022-11-04T09:15:47.260Z,89.2
2022-11-04T09:16:50.746Z,89
2022-11-04T09:17:54.307Z,88.9
2022-11-04T09:18:57.826Z,88.9
2022-11-04T09:20:00.055Z,88.9
2022-11-04T09:21:03.683Z,88.7
2022-11-04T09:22:06.117Z,88.6
2022-11-04T09:23:10.147Z,88.3
2022-11-04T09:24:14.567Z,88.3
2022-11-04T09:25:18.511Z,88.5
2022-11-04T09:26:21.407Z,88.3
2022-11-04T09:27:23.566Z,88
2022-11-04T09:28:27.296Z,87.8
2022-11-04T09:29:30.523Z,87.7
2022-11-04T09:30:34.200Z,87.5
2022-11-04T09:31:37.811Z,87.5
2022-11-04T09:32:41.489Z,87.6
2022-11-04T09:33:45.039Z,87.4
2022-11-04T09:34:48.800Z,87.5
2022-11-04T09:35:52.239Z,87.1
2022-11-04T09:36:54.990Z,87.2
2022-11-04T09:37:57.984Z,87.3
2022-11-04T09:39:01.150Z,87.3
2022-11-04T09:40:04.828Z,86.8
2022-11-04T09:41:08.596Z,86.6
2022-11-04T09:42:11.981Z,86.3
2022-11-04T09:43:14.870Z,85.9
2022-11-04T09:44:18.338Z,85.7
2022-11-04T09:45:24.402Z,85.6
2022-11-04T09:46:27.129Z,85
2022-11-04T09:47:30.308Z,84.8
2022-11-04T09:48:33.448Z,84.8
2022-11-04T09:49:37.038Z,84.4
2022-11-04T09:50:40.331Z,84
2022-11-04T09:51:59.155Z,83.7
2022-11-04T09:53:02.152Z,83.5
2022-11-04T09:54:05.151Z,83.4
2022-11-04T09:55:08.822Z,83.5
2022-11-04T09:56:12.351Z,83.6
2022-11-04T09:57:15.502Z,83.6
2022-11-04T09:58:19.365Z,83.4
2022-11-04T09:59:21.543Z,83.4
2022-11-04T10:00:24.538Z,83.5
2022-11-04T10:01:29.231Z,83
2022-11-04T10:02:33.598Z,82.8
2022-11-04T10:03:37.717Z,82.9
2022-11-04T10:04:41.224Z,83.2
2022-11-04T10:05:44.869Z,82.8
2022-11-04T10:06:47.852Z,82.9
2022-11-04T10:07:51.013Z,83.3
2022-11-04T10:08:53.813Z,83.3
2022-11-04T10:09:57.543Z,83.1
2022-11-04T10:11:00.290Z,83
2022-11-04T10:12:04.497Z,83.4
2022-11-04T10:13:09.080Z,83.9
2022-11-04T10:14:13.093Z,83.7
2022-11-04T10:15:16.370Z,83.5
2022-11-04T10:16:19.613Z,83.6
2022-11-04T10:17:22.606Z,83.2
2022-11-04T10:18:26.289Z,83.4
2022-11-04T10:19:29.857Z,83.2
2022-11-04T10:20:33.714Z,83.1
2022-11-04T10:21:37.595Z,82.5
2022-11-04T10:22:40.666Z,82.7
2022-11-04T10:23:43.567Z,82.7
2022-11-04T10:24:46.555Z,82.9
2022-11-04T10:25:49.617Z,82.4
2022-11-04T10:27:02.032Z,82.3
2022-11-04T10:28:04.948Z,82.2
2022-11-04T10:29:08.324Z,82.4
2022-11-04T10:30:11.436Z,82.5
2022-11-04T10:31:13.598Z,82.4
2022-11-04T10:32:23.710Z,82.2
2022-11-04T10:33:26.531Z,82
2022-11-04T10:34:29.664Z,82
2022-11-04T10:35:33.824Z,81.8
2022-11-04T10:36:36.375Z,82.1
2022-11-04T10:37:39.546Z,82
2022-11-04T10:38:42.528Z,82.1
2022-11-04T10:39:45.976Z,82.1
2022-11-04T10:40:48.971Z,81.5
2022-11-04T10:41:52.423Z,81.7
2022-11-04T10:42:55.244Z,82.1
2022-11-04T10:43:58.671Z,82
2022-11-04T10:45:02.081Z,82.2
2022-11-04T10:46:04.801Z,82.9
2022-11-04T10:47:07.329Z,81.9
2022-11-04T10:48:10.130Z,80.6
2022-11-04T10:49:13.417Z,80.7
2022-11-04T10:50:32.519Z,80.6
2022-11-04T10:51:36.567Z,80.9
2022-11-04T10:52:39.734Z,81.3
2022-11-04T10:53:42.225Z,81.1
2022-11-04T10:54:45.371Z,80.6
2022-11-04T10:55:48.812Z,80.7
2022-11-04T10:56:52.718Z,80.6
2022-11-04T10:57:56.349Z,80.2
2022-11-04T10:58:59.485Z,80.2
2022-11-04T11:00:02.898Z,80
2022-11-04T11:01:12.594Z,80
2022-11-04T11:02:19.147Z,79.7
2022-11-04T11:03:22.593Z,79.9
2022-11-04T11:04:25.421Z,79.7
2022-11-04T11:05:29.121Z,79.4
2022-11-04T11:06:32.266Z,79.4
2022-11-04T11:07:35.774Z,79.2
2022-11-04T11:08:38.605Z,79.3
2022-11-04T11:09:41.728Z,79.4
2022-11-04T11:10:44.823Z,79.9
2022-11-04T11:11:47.969Z,79.6
2022-11-04T11:12:53.415Z,79.4
2022-11-04T11:13:56.789Z,79.2
2022-11-04T11:15:00.898Z,79.4
2022-11-04T11:16:04.111Z,79.3
2022-11-04T11:17:07.183Z,79.3
2022-11-04T11:18:10.180Z,78.6
2022-11-04T11:19:13.002Z,78.5
2022-11-04T11:20:15.875Z,78.3
2022-11-04T11:21:19.079Z,78.2
2022-11-04T11:22:21.591Z,78.1
2022-11-04T11:23:24.380Z,78.4
2022-11-04T11:24:27.189Z,78.7
2022-11-04T11:25:30.457Z,78.3
2022-11-04T11:26:32.914Z,78.2
2022-11-04T11:27:36.638Z,78.1
2022-11-04T11:28:39.445Z,78
2022-11-04T11:29:42.800Z,78
2022-11-04T11:30:45.620Z,77.9
2022-11-04T11:31:49.388Z,78.3
2022-11-04T11:32:52.466Z,78.8
2022-11-04T11:33:55.614Z,78
2022-11-04T11:34:57.870Z,77.5
2022-11-04T11:36:00.842Z,77.4
2022-11-04T11:37:03.871Z,77.7
2022-11-04T11:38:06.668Z,77.9
2022-11-04T11:39:10.026Z,77.9
2022-11-04T11:40:12.747Z,78.5
2022-11-04T11:41:31.136Z,78.1
2022-11-04T11:42:33.709Z,78.2
2022-11-04T11:43:36.804Z,78.8
2022-11-04T11:44:40.211Z,78.3
2022-11-04T11:45:43.274Z,77.7
2022-11-04T11:46:46.190Z,78.3
2022-11-04T11:47:49.007Z,77.3
2022-11-04T11:48:51.804Z,77.1
2022-11-04T11:49:55.247Z,77.3
2022-11-04T11:50:58.428Z,77.6
2022-11-04T11:52:01.162Z,77.9
2022-11-04T11:53:04.060Z,77.1
2022-11-04T11:54:06.886Z,76.8
2022-11-04T11:55:10.114Z,77
2022-11-04T11:56:12.983Z,77.6
2022-11-04T11:57:26.296Z,77.3
2022-11-04T12:01:47.911Z,77.8
2022-11-04T12:02:52.156Z,77.5
2022-11-04T12:10:53.250Z,76.6
2022-11-04T12:11:56.558Z,77.1
2022-11-04T12:13:00.418Z,76.8
2022-11-04T12:14:02.928Z,76.8
2022-11-04T12:15:05.735Z,76.7
2022-11-04T12:16:08.249Z,77.1
2022-11-04T12:17:11.058Z,76.9
2022-11-04T12:18:14.599Z,76.7
2022-11-04T12:19:18.710Z,76.6
2022-11-04T12:20:22.140Z,76.6
2022-11-04T12:21:25.522Z,77
2022-11-04T12:22:28.594Z,78.8
2022-11-04T12:23:31.585Z,77.9
2022-11-04T12:24:35.291Z,78.3
2022-11-04T12:25:38.460Z,78
2022-11-04T12:26:41.890Z,78.9
2022-11-04T12:27:44.882Z,78.7
2022-11-04T12:28:48.097Z,80
2022-11-04T12:29:51.443Z,79.8
2022-11-04T12:30:54.815Z,77.4
2022-11-04T12:31:57.724Z,76.6
2022-11-04T12:33:00.887Z,77.2
2022-11-04T12:34:04.642Z,75.4
2022-11-04T12:35:08.340Z,74.4
2022-11-04T12:36:11.765Z,74.1
2022-11-04T12:37:14.995Z,73.4
2022-11-04T12:38:18.421Z,73.9
2022-11-04T12:39:21.391Z,74.4
2022-11-04T12:40:24.769Z,74.8
2022-11-04T12:42:25.629Z,75.2
2022-11-04T12:43:36.188Z,74.9
2022-11-04T12:44:39.850Z,75
2022-11-04T12:45:43.098Z,75.2
2022-11-04T12:46:45.828Z,75.3
2022-11-04T12:47:48.901Z,75.9
2022-11-04T12:49:07.711Z,75.9
2022-11-04T12:50:11.528Z,76.5
2022-11-04T12:51:15.030Z,77
2022-11-04T12:52:18.375Z,76.7
2022-11-04T12:53:21.721Z,76.1
2022-11-04T12:54:24.720Z,75.2
2022-11-04T12:55:28.455Z,75.4
2022-11-04T12:56:31.555Z,75.3
2022-11-04T12:57:34.635Z,75.8
2022-11-04T12:58:37.794Z,76.7
2022-11-04T12:59:40.725Z,76.8
2022-11-04T13:00:44.841Z,76.4
2022-11-04T13:01:48.822Z,75.9
2022-11-04T13:02:52.532Z,75.6
2022-11-04T13:03:55.686Z,75.7
2022-11-04T13:04:58.599Z,75.4
2022-11-04T13:06:02.168Z,75.5
2022-11-04T13:07:05.310Z,75.8
2022-11-04T13:08:15.268Z,75.5
2022-11-04T13:09:18.695Z,75.4
2022-11-04T13:10:22.061Z,75.5
2022-11-04T13:11:24.895Z,75
2022-11-04T13:12:28.594Z,75.2
2022-11-04T13:13:31.965Z,75.9
2022-11-04T13:14:34.840Z,76.4
2022-11-04T13:15:38.349Z,75.8
2022-11-04T13:16:42.447Z,75.4
2022-11-04T13:17:46.250Z,75.6
2022-11-04T13:18:49.524Z,75.7
2022-11-04T13:19:52.336Z,76
2022-11-04T13:21:03.973Z,75.8
2022-11-04T13:22:07.078Z,76
2022-11-04T13:23:12.031Z,75.9
2022-11-04T13:24:15.743Z,77
2022-11-04T13:25:19.185Z,77.5
2022-11-04T13:26:22.491Z,78.2
2022-11-04T13:27:25.657Z,78.4
2022-11-04T13:28:29.184Z,78.2
2022-11-04T13:29:31.992Z,77.7
2022-11-04T13:30:35.156Z,77
2022-11-04T13:31:38.665Z,77
2022-11-04T13:32:42.046Z,77
2022-11-04T13:33:44.838Z,76.8
2022-11-04T13:34:47.627Z,76.8
2022-11-04T13:35:50.779Z,76.5
2022-11-04T13:36:54.276Z,76.6
2022-11-04T13:37:57.658Z,76.9
2022-11-04T13:39:00.471Z,77.4
2022-11-04T13:40:03.471Z,77.7
2022-11-04T13:41:21.965Z,77.6
2022-11-04T13:42:25.043Z,77.8
2022-11-04T13:43:28.304Z,78.2
2022-11-04T13:44:31.146Z,78.1
2022-11-04T13:45:34.818Z,77.7
2022-11-04T13:46:39.304Z,77.6
2022-11-04T13:47:42.782Z,77.9
2022-11-04T13:48:46.339Z,78.1
2022-11-04T13:49:49.423Z,78.2
2022-11-04T13:50:51.943Z,77.9
2022-11-04T13:51:54.755Z,77.2
2022-11-04T13:52:58.134Z,77.3
2022-11-04T13:54:01.562Z,77.3
2022-11-04T13:55:05.031Z,77.1
2022-11-04T13:56:35.810Z,77.3
2022-11-04T13:57:38.886Z,76.5
2022-11-04T13:58:48.171Z,76
2022-11-04T13:59:51.763Z,76.1
2022-11-04T14:00:55.229Z,76.2
2022-11-04T14:01:58.725Z,76
2022-11-04T14:03:03.439Z,75.6
2022-11-04T14:04:07.252Z,75.5
2022-11-04T14:05:09.845Z,75.4
2022-11-04T14:06:13.005Z,76
2022-11-04T14:07:15.595Z,76.1
2022-11-04T14:08:18.343Z,75.9
2022-11-04T14:09:21.899Z,75.8
2022-11-04T14:10:25.253Z,75.7
2022-11-04T14:11:28.043Z,75.7
2022-11-04T14:12:30.933Z,76.1
2022-11-04T14:13:33.727Z,75.8
2022-11-04T14:14:36.794Z,75.8
2022-11-04T14:15:40.216Z,75.8
2022-11-04T14:16:43.959Z,75.7
2022-11-04T14:17:47.494Z,75.8
2022-11-04T14:18:50.974Z,76.2
2022-11-04T14:19:54.437Z,76.4
2022-11-04T14:20:56.961Z,76.6
2022-11-04T14:22:01.015Z,76.7
2022-11-04T14:23:04.394Z,76.8
2022-11-04T14:24:09.672Z,76.9
2022-11-04T14:25:19.590Z,77.2